Time;durP1;ratioP1;P1;durP2;ratioP2;P2;SDS_P1;SDS_P2;PMS_P1;PMS_P2;Temp;Humidity;BMP_temperature;BMP_pressure;BME280_temperature;BME280_humidity;BME280_pressure;Samples;Min_cycle;Max_cycle;Signal;HPM_P1;HPM_P2
2023/10/17 07:23:54;;;;;;;13.38;11.95;;;;;;;-145.79;91.58;78560.19;5320297;27;20470;-72
2023/10/17 07:28:59;;;;;;;15.20;12.73;;;;;;;-145.79;92.29;78551.72;5299731;28;20075;-73
2023/10/17 07:31:31;;;;;;;13.90;12.40;;;;;;;-145.79;92.53;78532.63;5300286;28;20060;-73
2023/10/17 07:36:43;;;;;;;13.63;11.85;;;;;;;-145.79;91.35;78543.25;5306561;28;20032;-73
2023/10/17 07:39:24;;;;;;;13.48;11.93;;;;;;;-145.79;91.26;78547.47;5300359;28;20107;-74
2023/10/17 07:41:56;;;;;;;13.25;11.93;;;;;;;-145.79;91.20;78539.00;5299949;28;20515;-73
2023/10/17 07:44:27;;;;;;;13.15;11.13;;;;;;;-145.79;90.97;78530.53;5308491;28;20111;-73
2023/10/17 07:49:41;;;;;;;13.60;10.90;;;;;;;-145.79;90.22;78534.75;5295273;28;20487;-73
2023/10/17 07:52:15;;;;;;;11.68;10.48;;;;;;;-145.79;90.40;78524.16;5299906;28;20103;-73
2023/10/17 07:54:55;;;;;;;12.02;10.93;;;;;;;-145.79;90.27;78515.69;5299500;28;20107;-74
2023/10/17 07:57:28;;;;;;;12.10;9.85;;;;;;;-145.79;89.95;78515.69;5299580;28;20032;-73
2023/10/17 07:59:59;;;;;;;12.77;10.65;;;;;;;-145.79;89.74;78517.81;5300097;28;20479;-73
2023/10/17 08:02:30;;;;;;;14.15;9.98;;;;;;;-145.79;89.31;78517.81;5298968;28;20043;-73
2023/10/17 08:05:16;;;;;;;11.85;10.27;;;;;;;-145.79;89.12;78511.44;5295562;28;20155;-73
2023/10/17 08:07:49;;;;;;;11.93;10.00;;;;;;;-145.79;88.84;78511.44;5299904;28;20028;-74
2023/10/17 08:10:29;;;;;;;13.40;10.07;;;;;;;-145.79;88.84;78500.84;5299091;28;20070;-74
2023/10/17 08:13:02;;;;;;;11.95;9.95;;;;;;;-145.79;88.83;78496.59;5299669;28;20459;-73
2023/10/17 08:15:43;;;;;;;10.15;9.13;;;;;;;-145.79;88.06;78505.06;5299847;28;20036;-74
2023/10/17 08:18:14;;;;;;;10.27;9.25;;;;;;;-145.79;88.41;78486.00;5298836;28;20024;-74
2023/10/17 08:20:54;;;;;;;10.07;9.15;;;;;;;-145.79;88.16;78488.13;5299402;28;20027;-75
2023/10/17 08:23:26;;;;;;;11.27;9.93;;;;;;;-145.79;88.28;78464.78;5279459;28;20044;-73
2023/10/17 08:25:59;;;;;;;10.68;9.63;;;;;;;-145.79;88.00;78458.44;5299673;28;20033;-74
2023/10/17 08:36:53;;;;;;;12.10;9.95;;;;;;;-145.79;85.69;78445.72;5285270;28;20040;-73
2023/10/17 08:42:12;;;;;;;10.38;7.88;;;;;;;-145.79;85.13;78424.50;5284993;28;20485;-73
2023/10/17 08:44:46;;;;;;;10.13;8.20;;;;;;;-145.79;83.44;78428.75;5288135;28;20089;-73
2023/10/17 08:47:18;;;;;;;10.13;8.65;;;;;;;-145.79;83.47;78403.31;5287026;28;20024;-74
2023/10/17 08:49:50;;;;;;;12.82;8.95;;;;;;;-145.79;84.25;78399.06;5285231;28;20020;-73
2023/10/17 08:52:28;;;;;;;9.20;8.35;;;;;;;-145.79;84.22;78388.47;5284206;28;20021;-73
2023/10/17 08:54:59;;;;;;;11.45;7.35;;;;;;;-145.79;82.52;78390.59;5285538;28;20028;-73
2023/10/17 08:57:37;;;;;;;8.63;7.30;;;;;;;-145.79;81.74;78386.34;5278153;28;20024;-73
2023/10/17 09:02:43;;;;;;;9.35;7.05;;;;;;;-145.79;80.40;78386.34;5299526;28;20047;-73
2023/10/17 09:05:18;;;;;;;7.03;6.32;;;;;;;-145.79;79.54;78382.09;5284698;28;20055;-73
2023/10/17 09:07:55;;;;;;;8.45;6.70;;;;;;;-145.79;77.63;78390.59;5285106;28;20379;-73
2023/10/17 09:10:36;;;;;;;7.20;5.85;;;;;;;-145.79;77.26;78382.09;5285399;28;20028;-73
2023/10/17 09:15:57;;;;;;;8.02;6.38;;;;;;;-145.79;78.48;78356.66;5283965;28;20024;-73
2023/10/17 09:18:29;;;;;;;6.55;5.95;;;;;;;-145.79;77.34;78348.19;5288882;28;20026;-74
2023/10/17 09:21:04;;;;;;;7.10;6.40;;;;;;;-145.79;76.76;78343.94;5287336;28;20028;-73
2023/10/17 09:23:38;;;;;;;;;;;;;;;-145.79;76.94;78326.97;5284308;28;20657;-74
2023/10/17 09:26:12;;;;;;;7.25;6.25;;;;;;;-145.79;75.96;78339.69;5287663;28;20359;-74
2023/10/17 09:28:45;;;;;;;9.27;7.47;;;;;;;-145.79;75.03;78326.97;5288861;28;20472;-73
2023/10/17 09:31:20;;;;;;;7.75;5.93;;;;;;;-145.79;73.52;78316.38;5268116;28;20024;-73
2023/10/17 09:33:53;;;;;;;5.88;4.95;;;;;;;-145.79;74.43;78316.38;5280005;28;20069;-74
2023/10/17 09:36:25;;;;;;;6.05;5.47;;;;;;;-145.79;73.37;78299.41;5283495;28;20047;-74
2023/10/17 09:38:57;;;;;;;7.18;5.30;;;;;;;-145.79;73.83;78293.06;5285044;28;20021;-75
2023/10/17 09:41:28;;;;;;;6.32;5.72;;;;;;;-145.79;73.65;78284.56;5284160;28;20028;-74
2023/10/17 09:44:03;;;;;;;5.47;4.82;;;;;;;-145.79;72.53;78269.75;5284585;28;20024;-75
2023/10/17 09:46:35;;;;;;;6.93;4.97;;;;;;;-145.79;71.24;78273.97;5281480;28;20039;-73
2023/10/17 09:49:08;;;;;;;5.95;5.13;;;;;;;-145.79;69.94;78267.63;5284326;28;20059;-75
2023/10/17 09:51:41;;;;;;;6.55;5.05;;;;;;;-145.79;70.14;78246.41;5284837;28;20134;-74
2023/10/17 09:54:13;;;;;;;5.93;4.82;;;;;;;-145.79;70.01;78240.06;5284954;28;20040;-75
2023/10/17 09:56:46;;;;;;;10.27;5.90;;;;;;;-145.79;68.95;78242.19;5283438;28;20134;-75
2023/10/17 09:59:27;;;;;;;9.10;5.05;;;;;;;-145.79;69.23;78242.19;5285428;28;20021;-74
2023/10/17 10:01:59;;;;;;;5.40;4.45;;;;;;;-145.79;67.68;78246.41;5285168;28;20033;-75
2023/10/17 10:04:31;;;;;;;5.30;4.47;;;;;;;-145.79;67.98;78235.81;5281536;28;20103;-75
2023/10/17 10:07:22;;;;;;;5.43;4.30;;;;;;;-145.79;67.93;78223.09;5287615;28;20166;-73
2023/10/17 10:09:54;;;;;;;6.05;5.00;;;;;;;-145.79;68.10;78225.22;5298316;28;20039;-75
2023/10/17 10:12:25;;;;;;;6.75;5.07;;;;;;;-145.79;66.12;78225.22;5294924;28;20017;-73
2023/10/17 10:14:58;;;;;;;5.55;4.40;;;;;;;-145.79;65.86;78204.00;5284712;28;20021;-72
2023/10/17 10:17:45;;;;;;;7.05;4.53;;;;;;;-145.79;65.03;78206.13;5283196;28;20436;-74
2023/10/17 10:20:23;;;;;;;5.10;3.97;;;;;;;-145.79;66.31;78182.81;5282531;28;20047;-75
2023/10/17 10:22:56;;;;;;;5.60;4.45;;;;;;;-145.79;64.60;78191.28;5284300;28;20052;-72
2023/10/17 10:25:27;;;;;;;4.50;4.13;;;;;;;-145.79;64.46;78184.94;5284844;28;20032;-72
2023/10/17 10:28:25;;;;;;;5.82;4.57;;;;;;;-145.79;65.90;78161.63;5283893;28;20021;-72
2023/10/17 10:30:57;;;;;;;5.95;5.35;;;;;;;-145.79;63.78;78151.00;5282588;28;20099;-72
2023/10/17 10:33:30;;;;;;;4.85;4.28;;;;;;;-145.79;62.31;78151.00;5283655;28;20115;-73
2023/10/17 10:36:04;;;;;;;5.70;3.55;;;;;;;-145.79;62.15;78144.66;5290562;28;20031;-76
2023/10/17 10:38:36;;;;;;;5.97;4.15;;;;;;;-145.79;62.18;78151.00;5283434;28;20090;-74
2023/10/17 10:41:08;;;;;;;5.43;3.60;;;;;;;-145.79;61.87;78131.94;5285601;28;20033;-75
2023/10/17 10:43:48;;;;;;;4.13;3.72;;;;;;;-145.79;61.91;78117.09;5280800;28;20388;-75
2023/10/17 10:46:20;;;;;;;4.40;4.00;;;;;;;-145.79;61.00;78110.72;5277327;28;20023;-74
2023/10/17 10:48:53;;;;;;;5.63;3.70;;;;;;;-145.79;60.96;78108.63;5282762;28;20024;-74
2023/10/17 10:51:24;;;;;;;6.88;4.15;;;;;;;-145.79;59.90;78110.72;5285201;28;20021;-74
2023/10/17 10:53:56;;;;;;;5.72;4.63;;;;;;;-145.79;60.11;78104.38;5286649;28;20134;-74
2023/10/17 10:56:27;;;;;;;7.10;3.90;;;;;;;-145.79;60.14;78102.25;5279430;28;20052;-73
2023/10/17 10:58:59;;;;;;;8.20;4.57;;;;;;;-145.79;59.38;78083.19;5284799;28;20055;-73
2023/10/17 11:01:33;;;;;;;3.88;3.47;;;;;;;-145.79;59.44;78085.28;5289687;28;20489;-74
2023/10/17 11:04:07;;;;;;;5.78;4.95;;;;;;;-145.79;59.30;78068.34;5282417;28;20404;-73
2023/10/17 11:06:38;;;;;;;4.93;3.45;;;;;;;-145.79;59.05;78066.22;5285355;28;20071;-75
2023/10/17 11:09:16;;;;;;;5.28;3.60;;;;;;;-145.79;58.83;78057.72;5282224;28;20048;-74
2023/10/17 11:11:50;;;;;;;3.95;3.55;;;;;;;-145.79;59.60;78040.78;5277141;28;20067;-74
2023/10/17 11:14:21;;;;;;;7.00;4.50;;;;;;;-145.79;58.89;78038.66;5282002;28;20024;-74
2023/10/17 11:16:57;;;;;;;5.57;3.28;;;;;;;-145.79;59.62;78021.69;5282560;28;20029;-74
2023/10/17 11:19:28;;;;;;;4.32;3.10;;;;;;;-145.79;57.93;78025.94;5283648;28;20108;-74
2023/10/17 11:22:02;;;;;;;5.53;3.40;;;;;;;-145.79;58.47;78008.97;5283776;28;20112;-74
2023/10/17 11:24:34;;;;;;;3.63;3.30;;;;;;;-145.79;57.91;77996.25;5273852;28;20032;-74
2023/10/17 11:27:05;;;;;;;4.95;3.33;;;;;;;-145.79;56.80;77996.25;5281703;28;20055;-72
2023/10/17 11:29:36;;;;;;;4.72;3.10;;;;;;;-145.79;56.31;77981.41;5274563;28;20021;-74
2023/10/17 11:32:14;;;;;;;5.30;3.28;;;;;;;-145.79;56.34;77970.81;5288215;28;20078;-73
2023/10/17 11:35:03;;;;;;;4.38;3.40;;;;;;;-145.79;55.53;77964.47;5277434;28;20040;-74
2023/10/17 11:37:43;;;;;;;4.05;3.05;;;;;;;-145.79;54.65;77970.81;5281173;28;20021;-73
2023/10/17 11:40:45;;;;;;;3.75;2.63;;;;;;;-145.79;55.38;77945.38;5284037;28;20032;-73
2023/10/17 11:43:18;;;;;;;4.35;2.53;;;;;;;-145.79;54.86;77936.91;5279418;28;20020;-73
2023/10/17 11:45:50;;;;;;;7.78;3.75;;;;;;;-145.79;54.53;77941.13;5282085;28;20016;-73
2023/10/17 11:48:30;;;;;;;6.43;4.53;;;;;;;-145.79;55.39;77928.41;5282288;28;20044;-75
2023/10/17 11:51:05;;;;;;;3.70;2.80;;;;;;;-145.79;54.94;77915.69;5285420;28;20031;-74
2023/10/17 11:54:04;;;;;;;6.00;3.65;;;;;;;-145.79;55.17;77913.56;5280887;28;20503;-74
2023/10/17 11:56:40;;;;;;;6.28;3.75;;;;;;;-145.79;53.93;77917.81;5281036;28;20039;-74
2023/10/17 11:59:20;;;;;;;5.43;3.10;;;;;;;-145.79;53.95;77915.69;5281258;28;20025;-74
2023/10/17 12:01:54;;;;;;;6.50;3.03;;;;;;;-145.79;53.28;77924.19;5280433;28;20434;-72
2023/10/17 12:04:27;;;;;;;4.80;2.55;;;;;;;-145.79;54.37;77926.28;5277321;28;20123;-72
2023/10/17 12:07:01;;;;;;;2.55;2.35;;;;;;;-145.79;52.78;77911.47;5280849;28;20024;-73
2023/10/17 12:09:33;;;;;;;4.57;2.45;;;;;;;-145.79;52.46;77907.22;5282426;28;20574;-73
2023/10/17 12:12:06;;;;;;;3.63;2.38;;;;;;;-145.79;51.55;77913.56;5284697;28;20131;-73
2023/10/17 12:14:37;;;;;;;3.80;2.72;;;;;;;-145.79;52.21;77900.84;5286657;28;20033;-74
2023/10/17 12:17:18;;;;;;;6.50;3.25;;;;;;;-145.79;52.98;77883.91;5286047;28;20029;-74
2023/10/17 12:19:51;;;;;;;5.28;3.33;;;;;;;-145.79;53.67;77877.53;5282340;28;20036;-74
2023/10/17 12:22:22;;;;;;;6.95;3.25;;;;;;;-145.79;53.77;77881.78;5276672;28;20072;-73
2023/10/17 12:24:56;;;;;;;3.42;3.13;;;;;;;-145.79;54.74;77869.06;5284339;28;20426;-73
2023/10/17 12:27:27;;;;;;;6.00;3.42;;;;;;;-145.79;54.25;77860.56;5284030;28;20452;-73
2023/10/17 12:29:59;;;;;;;4.55;3.20;;;;;;;-145.79;54.86;77852.09;5288675;28;20118;-71
2023/10/17 12:32:31;;;;;;;3.40;3.10;;;;;;;-145.79;54.49;77837.25;5277741;28;20094;-71
2023/10/17 12:35:05;;;;;;;4.18;3.53;;;;;;;-145.79;54.05;77835.13;5293627;28;20111;-74
2023/10/17 12:37:43;;;;;;;5.38;3.25;;;;;;;-145.79;53.94;77803.34;5282932;28;20025;-74
2023/10/17 12:40:21;;;;;;;4.88;3.03;;;;;;;-145.79;53.50;77801.22;5281035;28;20038;-72
2023/10/17 12:42:55;;;;;;;4.28;2.72;;;;;;;-145.79;53.80;77771.53;5278239;28;20032;-74
2023/10/17 12:45:26;;;;;;;5.32;3.70;;;;;;;-145.79;55.04;77750.34;5289514;28;20012;-73
2023/10/17 12:47:58;;;;;;;7.53;5.65;;;;;;;-145.79;54.86;77731.28;5284750;28;20028;-77
2023/10/17 12:50:29;;;;;;;6.57;4.72;;;;;;;-145.79;52.73;77756.72;5283524;28;20025;-75
2023/10/17 12:53:01;;;;;;;5.82;3.47;;;;;;;-145.79;53.51;77750.34;5284485;28;20036;-73
2023/10/17 12:55:35;;;;;;;4.80;3.20;;;;;;;-145.79;53.53;77737.63;5283886;28;20487;-74
2023/10/17 12:58:07;;;;;;;5.90;3.80;;;;;;;-145.79;54.21;77729.16;5283549;28;20012;-75
2023/10/17 13:00:46;;;;;;;3.55;3.22;;;;;;;-145.79;52.81;77735.50;5286346;28;20031;-75
2023/10/17 13:03:18;;;;;;;4.15;3.25;;;;;;;-145.79;53.46;77739.75;5278363;28;20012;-74
2023/10/17 13:05:50;;;;;;;5.03;2.83;;;;;;;-145.79;54.37;77705.84;5284458;28;20039;-74
2023/10/17 13:08:21;;;;;;;4.53;2.95;;;;;;;-145.79;53.11;77724.91;5283971;28;20482;-72
2023/10/17 13:10:55;;;;;;;6.13;3.30;;;;;;;-145.79;53.54;77720.66;5283448;28;20025;-74
2023/10/17 13:13:27;;;;;;;3.25;2.92;;;;;;;-145.79;53.47;77733.38;5299558;28;20052;-74
2023/10/17 13:15:59;;;;;;;4.57;3.20;;;;;;;-145.79;53.47;77731.28;5302844;28;20120;-74
2023/10/17 13:18:36;;;;;;;3.45;2.53;;;;;;;-145.79;56.13;77697.34;5289363;28;20103;-75
2023/10/17 13:21:13;;;;;;;5.00;3.13;;;;;;;-145.79;54.33;77729.16;5283325;28;20033;-74
2023/10/17 13:23:45;;;;;;;3.40;3.05;;;;;;;-145.79;53.74;77724.91;5288038;28;20040;-73
2023/10/17 13:26:19;;;;;;;4.03;3.65;;;;;;;-145.79;54.49;77729.16;5281392;28;20032;-74
2023/10/17 13:28:50;;;;;;;3.20;2.47;;;;;;;-145.79;56.90;77707.94;5274946;28;20020;-73
2023/10/17 13:31:21;;;;;;;6.10;3.22;;;;;;;-145.79;54.40;77724.91;5282679;28;20028;-74
2023/10/17 13:33:55;;;;;;;4.20;3.03;;;;;;;-145.79;54.70;77729.16;5281263;28;20379;-76
2023/10/17 13:36:27;;;;;;;4.45;3.50;;;;;;;-145.79;54.02;77733.38;5281987;28;20020;-73
2023/10/17 13:38:59;;;;;;;4.38;3.20;;;;;;;-145.79;54.56;77729.16;5297893;28;20422;-74
2023/10/17 13:41:31;;;;;;;3.38;3.08;;;;;;;-145.79;54.25;77729.16;5286280;28;20329;-73
2023/10/17 13:44:04;;;;;;;4.53;3.60;;;;;;;-145.79;53.50;77729.16;5283868;28;20021;-75
2023/10/17 13:46:36;;;;;;;5.05;4.55;;;;;;;-145.79;54.94;77720.66;5285987;28;20028;-74
2023/10/17 13:49:08;;;;;;;4.18;3.42;;;;;;;-145.79;54.36;77733.38;5290534;28;20046;-72
2023/10/17 13:51:46;;;;;;;3.90;3.47;;;;;;;-145.79;54.24;77727.03;5289773;28;20068;-73
2023/10/17 13:54:17;;;;;;;7.30;4.47;;;;;;;-145.79;55.61;77724.91;5283322;28;20081;-74
2023/10/17 13:56:48;;;;;;;6.65;3.95;;;;;;;-145.79;54.36;77739.75;5283138;28;20044;-72
2023/10/17 13:59:34;;;;;;;4.20;3.35;;;;;;;-145.79;53.58;77746.09;5290206;28;20143;-71
2023/10/17 14:02:06;;;;;;;5.22;3.70;;;;;;;-145.79;54.16;77746.09;5277823;28;20028;-72
2023/10/17 14:04:38;;;;;;;5.75;4.10;;;;;;;-145.79;54.76;77746.09;5283388;28;20035;-72
2023/10/17 14:07:12;;;;;;;10.00;5.85;;;;;;;-145.79;55.09;77754.59;5283400;28;20095;-71
2023/10/17 14:09:44;;;;;;;6.85;3.95;;;;;;;-145.79;57.03;77720.66;5282732;28;20135;-72
2023/10/17 14:12:15;;;;;;;4.05;3.45;;;;;;;-145.79;55.43;77733.38;5283203;28;20111;-71
2023/10/17 14:15:10;;;;;;;6.03;3.97;;;;;;;-145.79;55.88;77720.66;5287283;28;20028;-72
2023/10/17 14:17:45;;;;;;;5.15;3.50;;;;;;;-145.79;55.68;77716.44;5276597;28;20048;-72
2023/10/17 14:20:18;;;;;;;5.57;3.72;;;;;;;-145.79;55.23;77720.66;5283586;28;20515;-70
2023/10/17 14:23:08;;;;;;;5.40;4.72;;;;;;;-145.79;54.58;77733.38;5286103;28;20131;-71
2023/10/17 14:28:34;;;;;;;4.32;3.90;;;;;;;-145.79;59.36;77707.94;5282886;28;20115;-71
2023/10/17 14:31:05;;;;;;;5.88;3.90;;;;;;;-145.79;55.40;77712.19;5286062;28;20043;-70
2023/10/17 14:33:37;;;;;;;5.75;4.18;;;;;;;-145.79;55.01;77699.47;5285467;28;20032;-72
2023/10/17 14:36:09;;;;;;;6.75;4.10;;;;;;;-145.79;54.79;77695.22;5268395;28;20436;-71
2023/10/17 14:38:40;;;;;;;5.38;4.55;;;;;;;-145.79;55.43;77699.47;5281675;28;20115;-71
2023/10/17 14:41:12;;;;;;;6.57;4.65;;;;;;;-145.79;55.86;77691.00;5288375;28;20028;-69
2023/10/17 14:43:55;;;;;;;7.88;4.28;;;;;;;-145.79;55.61;77686.75;5289371;28;20020;-72
2023/10/17 14:46:26;;;;;;;5.10;3.58;;;;;;;-145.79;56.29;77697.34;5280739;28;20029;-71
2023/10/17 14:48:58;;;;;;;5.78;3.83;;;;;;;-145.79;58.02;77686.75;5288820;28;20024;-71
2023/10/17 14:51:29;;;;;;;4.68;3.75;;;;;;;-145.79;55.83;77676.16;5281810;28;20123;-71
2023/10/17 14:54:08;;;;;;;4.45;3.95;;;;;;;-145.79;55.69;77682.50;5275162;28;20452;-70
2023/10/17 14:56:39;;;;;;;6.93;4.90;;;;;;;-145.79;55.25;77663.44;5276558;28;20033;-71
2023/10/17 14:59:11;;;;;;;4.25;3.83;;;;;;;-145.79;55.25;77657.06;5270976;28;20041;-71
2023/10/17 15:01:43;;;;;;;7.72;6.68;;;;;;;-145.79;55.79;77663.44;5283302;28;20111;-71
2023/10/17 15:04:15;;;;;;;4.45;3.72;;;;;;;-145.79;55.72;77648.59;5285145;28;20464;-71
2023/10/17 15:06:46;;;;;;;6.18;4.00;;;;;;;-145.79;55.27;77650.72;5278118;28;20112;-71
2023/10/17 15:09:18;;;;;;;5.88;4.32;;;;;;;-145.79;55.27;77654.97;5285755;28;20024;-72
2023/10/17 15:11:49;;;;;;;5.75;4.22;;;;;;;-145.79;56.17;77652.84;5278541;28;20031;-71
2023/10/17 15:14:22;;;;;;;7.57;4.25;;;;;;;-145.79;57.52;77659.19;5270892;28;20031;-71
2023/10/17 15:16:53;;;;;;;4.75;3.90;;;;;;;-145.79;55.59;77691.00;5282565;28;20040;-71
2023/10/17 15:19:25;;;;;;;5.30;4.00;;;;;;;-145.79;56.54;77676.16;5281552;28;20026;-71
2023/10/17 15:21:56;;;;;;;5.38;4.10;;;;;;;-145.79;56.68;77669.78;5283978;28;20051;-71
2023/10/17 15:24:28;;;;;;;4.85;4.28;;;;;;;-145.79;59.32;77652.84;5282412;28;20086;-71
2023/10/17 15:27:01;;;;;;;4.93;4.43;;;;;;;-145.79;59.66;77650.72;5266941;28;20029;-71
2023/10/17 15:29:32;;;;;;;5.22;4.15;;;;;;;-145.79;57.12;77667.69;5274934;28;20029;-70
2023/10/17 15:32:08;;;;;;;4.95;4.22;;;;;;;-145.79;56.99;77684.63;5279128;28;20032;-71
2023/10/17 15:34:39;;;;;;;5.32;4.20;;;;;;;-145.79;57.04;77684.63;5286152;28;20062;-70
2023/10/17 15:37:12;;;;;;;5.03;4.05;;;;;;;-145.79;57.03;77705.84;5282527;28;20019;-69
2023/10/17 15:39:44;;;;;;;4.78;3.47;;;;;;;-145.79;58.42;77701.59;5281055;28;20039;-68
2023/10/17 15:42:15;;;;;;;4.93;4.47;;;;;;;-145.79;59.97;77691.00;5284944;28;20107;-69
2023/10/17 15:44:48;;;;;;;8.45;5.07;;;;;;;-145.79;61.42;77682.50;5283527;28;20044;-68
2023/10/17 15:47:19;;;;;;;5.78;4.45;;;;;;;-145.79;58.42;77731.28;5285239;28;20032;-69
2023/10/17 15:49:51;;;;;;;4.47;3.83;;;;;;;-145.79;59.01;77720.66;5286355;28;20024;-68
2023/10/17 15:52:23;;;;;;;6.20;4.32;;;;;;;-145.79;59.32;77737.63;5287015;28;20052;-69
2023/10/17 15:54:54;;;;;;;11.23;4.55;;;;;;;-145.79;62.39;77712.19;5286576;28;20104;-69
2023/10/17 15:57:26;;;;;;;4.68;4.18;;;;;;;-145.79;60.44;77737.63;5285983;28;20108;-70
2023/10/17 15:59:58;;;;;;;6.53;4.22;;;;;;;-145.79;61.31;77718.56;5285005;28;20074;-70
2023/10/17 16:02:31;;;;;;;6.25;5.50;;;;;;;-145.79;60.17;77746.09;5267192;28;20033;-73
2023/10/17 16:05:04;;;;;;;6.57;4.32;;;;;;;-145.79;60.64;77756.72;5283303;28;20066;-73
2023/10/17 16:07:35;;;;;;;5.07;4.20;;;;;;;-145.79;61.42;77758.81;5285040;28;20531;-71
2023/10/17 16:10:14;;;;;;;6.68;4.65;;;;;;;-145.79;60.85;77769.44;5285677;28;20116;-71
2023/10/17 16:12:48;;;;;;;5.47;3.67;;;;;;;-145.79;61.65;77780.03;5286037;28;20025;-72
2023/10/17 16:15:20;;;;;;;5.65;4.30;;;;;;;-145.79;61.46;77790.63;5285394;28;20044;-72
2023/10/17 16:17:51;;;;;;;4.93;3.92;;;;;;;-145.79;61.54;77792.75;5280551;28;20063;-72
2023/10/17 16:20:22;;;;;;;6.47;4.53;;;;;;;-145.79;61.56;77801.22;5276575;28;20090;-70
2023/10/17 16:22:56;;;;;;;4.70;3.70;;;;;;;-145.79;62.40;77813.94;5284005;28;20132;-68
2023/10/17 16:25:29;;;;;;;5.13;4.63;;;;;;;-145.79;62.62;77818.19;5285279;28;20021;-70
2023/10/17 16:28:01;;;;;;;5.13;3.97;;;;;;;-145.79;63.60;77837.25;5269117;28;20087;-69
2023/10/17 16:30:33;;;;;;;5.25;3.97;;;;;;;-145.79;63.46;77837.25;5283168;28;20474;-68
2023/10/17 16:33:05;;;;;;;5.05;4.38;;;;;;;-145.79;63.72;77837.25;5285359;28;20047;-71
2023/10/17 16:35:36;;;;;;;6.70;4.82;;;;;;;-145.79;64.17;77843.63;5276654;28;20012;-69
2023/10/17 16:38:10;;;;;;;4.40;4.00;;;;;;;-145.79;64.06;77839.38;5284898;28;20021;-68
2023/10/17 16:40:44;;;;;;;7.75;5.50;;;;;;;-145.79;63.97;77860.56;5284985;28;20425;-69
2023/10/17 16:43:15;;;;;;;7.05;4.68;;;;;;;-145.79;64.52;77869.06;5284382;28;20036;-69
2023/10/17 16:45:51;;;;;;;12.07;9.07;;;;;;;-145.79;64.69;77860.56;5285230;28;20119;-69
2023/10/17 16:48:23;;;;;;;6.65;5.68;;;;;;;-145.79;64.80;77869.06;5284864;28;20021;-69
2023/10/17 16:50:54;;;;;;;5.97;4.70;;;;;;;-145.79;65.33;77873.31;5284608;28;20107;-73
2023/10/17 16:53:28;;;;;;;6.40;5.80;;;;;;;-145.79;65.32;77869.06;5283092;28;20063;-75
